Time;durP1;ratioP1;P1;durP2;ratioP2;P2;SDS_P1;SDS_P2;PMS_P1;PMS_P2;Temp;Humidity;BMP_temperature;BMP_pressure;BME280_temperature;BME280_humidity;BME280_pressure;Samples;Min_cycle;Max_cycle;Signal;HPM_P1;HPM_P2
2022/04/08 00:02:36;;;;;;;;;0.00;0.00;;;;;16.01;47.09;100069.06;146629;593;45021;-80
2022/04/08 00:05:29;;;;;;;;;0.00;0.00;;;;;15.97;47.26;100054.19;146627;577;46917;-77
2022/04/08 00:08:21;;;;;;;;;0.33;0.00;;;;;15.94;47.16;100053.25;146628;576;45020;-78
2022/04/08 00:11:13;;;;;;;;;1.00;1.00;;;;;15.91;46.88;100057.56;146622;583;45017;-78
2022/04/08 00:14:05;;;;;;;;;1.00;0.00;;;;;15.91;46.88;100063.66;146626;578;46008;-80
2022/04/08 00:16:57;;;;;;;;;0.00;0.00;;;;;15.90;46.72;100064.50;146626;578;46010;-77
2022/04/08 00:19:49;;;;;;;;;0.00;0.00;;;;;15.90;46.58;100069.75;146630;564;45008;-76
2022/04/08 00:22:45;;;;;;;;;0.00;0.00;;;;;15.93;46.07;100089.84;146626;576;45016;-76
2022/04/08 00:25:37;;;;;;;;;0.67;0.00;;;;;15.94;46.10;100096.81;146630;584;45027;-76
2022/04/08 00:28:30;;;;;;;;;0.00;0.00;;;;;15.94;46.14;100097.69;146627;610;45010;-77
2022/04/08 00:31:21;;;;;;;;;0.00;0.00;;;;;15.94;46.66;100095.09;146628;571;46008;-77
2022/04/08 00:34:14;;;;;;;;;27.00;20.75;;;;;15.95;46.54;100085.53;146624;571;45918;-76
2022/04/08 00:37:05;;;;;;;;;28.00;24.75;;;;;15.95;46.04;100088.16;146628;569;45008;-83
2022/04/08 00:39:58;;;;;;;;;16.00;14.25;;;;;15.94;46.20;100078.53;146622;585;46008;-77
2022/04/08 00:42:50;;;;;;;;;7.00;6.50;;;;;15.91;45.68;100079.34;146625;583;46008;-75
2022/04/08 00:45:42;;;;;;;;;16.75;15.00;;;;;15.90;45.78;100084.56;146626;599;45010;-76
2022/04/08 00:48:36;;;;;;;;;8.75;8.00;;;;;15.89;46.00;100086.28;146626;667;45008;-76
2022/04/08 00:51:29;;;;;;;;;17.25;16.50;;;;;15.88;46.02;100097.59;146624;572;45010;-76
2022/04/08 00:54:23;;;;;;;;;10.75;10.00;;;;;15.86;46.16;100098.44;146624;589;45020;-77
2022/04/08 00:57:16;;;;;;;;;0.33;0.33;;;;;15.77;45.76;100091.28;146623;576;45016;-78
2022/04/08 01:00:13;;;;;;;;;1.33;1.00;;;;;15.80;45.73;100108.75;146630;682;44919;-78
2022/04/08 01:03:05;;;;;;;;;0.00;0.00;;;;;15.75;46.01;100107.78;146625;664;46017;-78
2022/04/08 01:05:58;;;;;;;;;4.00;3.00;;;;;15.73;46.60;100125.16;146627;569;45020;-75
2022/04/08 01:08:54;;;;;;;;;13.50;12.50;;;;;15.72;46.66;100123.41;146625;607;46010;-80
2022/04/08 01:11:47;;;;;;;;;7.75;7.75;;;;;15.70;46.47;100134.72;146622;651;45919;-83
2022/04/08 01:14:42;;;;;;;;;3.25;3.25;;;;;15.67;46.20;100128.53;146624;696;45016;-82
2022/04/08 01:17:34;;;;;;;;;4.75;4.75;;;;;15.65;46.12;100127.59;146621;590;47012;-81
2022/04/08 01:20:27;;;;;;;;;3.00;3.00;;;;;15.62;45.43;100125.78;146598;663;46012;-81
2022/04/08 01:23:20;;;;;;;;;3.00;3.00;;;;;15.61;45.52;100126.66;146601;589;46020;-80
2022/04/08 01:26:16;;;;;;;;;4.50;4.50;;;;;15.60;45.62;100130.09;146599;667;46017;-81
2022/04/08 01:29:09;;;;;;;;;3.25;3.25;;;;;15.59;45.26;100123.09;146596;690;47008;-81
2022/04/08 01:32:01;;;;;;;;;2.75;2.00;;;;;15.57;45.72;100129.13;146597;709;47012;-81
2022/04/08 01:34:53;;;;;;;;;3.00;2.00;;;;;15.56;45.62;100123.03;146603;596;46008;-81
2022/04/08 01:37:45;;;;;;;;;1.00;0.75;;;;;15.55;45.61;100126.50;146599;594;46010;-81
2022/04/08 01:40:37;;;;;;;;;2.50;2.50;;;;;15.50;45.51;100128.13;146603;632;46021;-80
2022/04/08 01:43:30;;;;;;;;;2.33;2.00;;;;;15.50;45.85;100133.34;146598;630;47010;-80
2022/04/08 01:46:22;;;;;;;;;5.50;5.50;;;;;15.50;45.44;100129.88;146602;608;46021;-82
2022/04/08 01:49:14;;;;;;;;;1.67;0.67;;;;;15.46;45.96;100129.81;146599;622;46016;-81
2022/04/08 01:52:06;;;;;;;;;1.33;1.00;;;;;15.47;45.65;100122.84;146601;569;46008;-81
2022/04/08 01:54:58;;;;;;;;;0.75;0.75;;;;;15.47;45.29;100128.06;146599;601;46012;-79
2022/04/08 01:57:51;;;;;;;;;1.00;1.00;;;;;15.47;45.44;100130.69;146603;579;45020;-83
2022/04/08 02:00:43;;;;;;;;;2.00;2.00;;;;;15.46;45.43;100128.91;146597;621;47010;-84
2022/04/08 02:03:36;;;;;;;;;3.50;3.50;;;;;15.42;45.14;100132.28;146600;685;46025;-77
2022/04/08 02:06:28;;;;;;;;;2.00;2.00;;;;;15.45;45.47;100140.19;146601;590;45917;-82
2022/04/08 02:09:19;;;;;;;;;1.00;1.00;;;;;15.44;45.53;100141.06;146601;586;46021;-77
2022/04/08 02:12:12;;;;;;;;;1.00;1.00;;;;;15.43;45.23;100141.91;146600;623;46010;-78
2022/04/08 02:15:04;;;;;;;;;1.00;1.00;;;;;15.43;45.55;100142.78;146605;564;46008;-77
2022/04/08 02:17:56;;;;;;;;;2.00;2.00;;;;;15.42;45.39;100147.97;146600;694;46017;-73
2022/04/08 02:20:48;;;;;;;;;1.67;1.67;;;;;15.42;44.11;100147.97;146604;620;46008;-73
2022/04/08 02:23:41;;;;;;;;;1.75;1.75;;;;;15.41;45.65;100147.09;146597;564;46016;-73
2022/04/08 02:26:33;;;;;;;;;2.00;2.00;;;;;15.41;45.39;100146.22;146602;585;46020;-74
2022/04/08 02:29:26;;;;;;;;;1.50;1.00;;;;;15.39;45.39;100147.91;146600;648;46012;-74
2022/04/08 02:32:18;;;;;;;;;3.25;2.50;;;;;15.43;45.38;100153.25;146603;640;46020;-73
2022/04/08 02:35:11;;;;;;;;;2.75;2.75;;;;;15.45;45.01;100158.50;146597;617;47010;-73
2022/04/08 02:38:03;;;;;;;;;2.00;2.00;;;;;15.45;44.97;100146.34;146598;566;47008;-73
2022/04/08 02:40:56;;;;;;;;;2.33;2.33;;;;;15.46;44.24;100149.81;146601;701;46010;-77
2022/04/08 02:43:48;;;;;;;;;1.00;1.00;;;;;15.46;44.95;100152.44;146604;569;46020;-87
2022/04/08 02:46:40;;;;;;;;;0.50;0.50;;;;;15.39;45.20;100174.94;146603;624;46016;-81
2022/04/08 02:49:32;;;;;;;;;2.25;1.50;;;;;15.31;45.12;100172.97;146603;563;46008;-87
2022/04/08 02:52:25;;;;;;;;;3.00;2.00;;;;;15.18;45.35;100187.50;146600;621;46010;-87
2022/04/08 02:55:18;;;;;;;;;4.75;4.25;;;;;15.11;46.18;100188.16;146605;636;45021;-90
2022/04/08 02:58:11;;;;;;;;;3.00;2.00;;;;;15.02;46.54;100184.50;146601;592;46010;-88
2022/04/08 03:01:03;;;;;;;;;1.00;1.00;;;;;14.15;46.27;100040.50;146602;578;46020;-87
2022/04/08 03:03:55;;;;;;;;;1.00;1.00;;;;;14.95;46.69;100173.84;146599;665;46010;-77
2022/04/08 03:06:47;;;;;;;;;2.50;1.50;;;;;14.89;46.55;100179.84;146600;589;46020;-78
2022/04/08 03:09:39;;;;;;;;;1.75;1.75;;;;;14.86;47.02;100173.63;146600;590;46017;-77
2022/04/08 03:12:31;;;;;;;;;5.25;2.00;;;;;14.84;46.88;100171.00;146602;626;46022;-76
2022/04/08 03:15:23;;;;;;;;;3.25;3.00;;;;;14.83;47.53;100181.38;146597;566;47010;-73
2022/04/08 03:18:16;;;;;;;;;1.50;1.25;;;;;14.79;47.62;100186.50;146600;627;47008;-74
2022/04/08 03:21:08;;;;;;;;;0.75;0.75;;;;;14.77;47.01;100176.91;146596;564;46016;-74
2022/04/08 03:24:03;;;;;;;;;2.50;2.50;;;;;14.75;47.19;100189.91;146602;585;46008;-74
2022/04/08 03:26:56;;;;;;;;;2.50;2.50;;;;;14.73;47.08;100198.53;146601;569;46016;-74
2022/04/08 03:29:51;;;;;;;;;4.00;3.75;;;;;14.72;47.09;100197.66;146603;589;46020;-75
2022/04/08 03:32:43;;;;;;;;;3.75;3.00;;;;;14.67;46.94;100200.97;146599;648;46016;-76
2022/04/08 03:35:35;;;;;;;;;3.25;3.25;;;;;14.63;46.71;100205.25;146599;697;46025;-75
2022/04/08 03:38:27;;;;;;;;;2.75;2.50;;;;;14.61;47.85;100220.00;146597;656;47010;-79
2022/04/08 03:41:19;;;;;;;;;4.50;4.00;;;;;14.57;47.91;100212.91;146602;582;47008;-74
2022/04/08 03:44:12;;;;;;;;;6.00;5.00;;;;;14.50;48.37;100214.44;146599;669;46016;-75
2022/04/08 03:47:04;;;;;;;;;7.25;6.25;;;;;14.41;48.68;100221.13;146602;649;45021;-76
2022/04/08 03:49:57;;;;;;;;;7.75;6.75;;;;;14.32;48.84;100225.22;146598;596;47012;-74
2022/04/08 03:52:49;;;;;;;;;5.00;4.00;;;;;14.32;49.01;100232.19;146601;595;47020;-74
2022/04/08 03:55:41;;;;;;;;;7.75;4.00;;;;;14.30;49.22;100242.59;146600;628;46016;-86
2022/04/08 03:58:33;;;;;;;;;8.50;8.00;;;;;14.24;49.59;100241.53;146601;643;46020;-88
2022/04/08 04:01:25;;;;;;;;;4.50;4.00;;;;;14.15;49.38;100238.66;146600;590;45873;-76
2022/04/08 04:04:17;;;;;;;;;7.50;7.50;;;;;14.07;49.25;100261.88;146598;586;46020;-80
2022/04/08 04:07:10;;;;;;;;;9.00;7.50;;;;;13.99;49.72;100276.44;146595;622;47010;-74
2022/04/08 04:10:02;;;;;;;;;8.00;7.00;;;;;13.94;49.68;100267.56;146601;634;46021;-75
2022/04/08 04:12:54;;;;;;;;;5.75;5.75;;;;;13.95;49.47;100274.53;146599;573;46030;-78
2022/04/08 04:15:46;;;;;;;;;5.75;5.00;;;;;13.83;50.20;100262.00;146605;615;46021;-76
2022/04/08 04:18:38;;;;;;;;;6.00;5.25;;;;;14.00;49.59;100297.31;146598;578;46916;-76
2022/04/08 04:21:32;;;;;;;;;9.75;6.25;;;;;14.03;49.54;100297.41;146599;574;47008;-76
2022/04/08 04:24:24;;;;;;;;;5.75;5.75;;;;;14.06;49.66;100307.03;146599;613;45918;-77
2022/04/08 04:27:16;;;;;;;;;8.00;6.25;;;;;14.04;50.22;100295.66;146601;587;46020;-83
2022/04/08 04:30:09;;;;;;;;;7.00;6.75;;;;;14.10;49.81;100316.72;146600;606;46017;-80
2022/04/08 04:33:01;;;;;;;;;9.50;6.50;;;;;14.10;49.46;100324.53;146599;589;46008;-81
2022/04/08 04:35:54;;;;;;;;;5.25;5.25;;;;;14.13;49.26;100314.19;146600;563;45917;-80
2022/04/08 04:38:45;;;;;;;;;6.50;5.00;;;;;14.18;49.72;100328.28;146600;673;46008;-80
2022/04/08 04:41:38;;;;;;;;;7.00;6.50;;;;;14.21;49.31;100330.09;146599;574;46028;-80
2022/04/08 04:44:29;;;;;;;;;5.25;4.75;;;;;14.21;48.82;100325.75;146601;670;46009;-80
2022/04/08 04:47:22;;;;;;;;;7.00;6.00;;;;;14.39;49.32;100328.03;146599;570;46016;-80
2022/04/08 04:50:14;;;;;;;;;3.50;3.50;;;;;15.00;49.05;100331.50;146601;571;46008;-80
2022/04/08 04:53:07;;;;;;;;;6.00;6.00;;;;;15.71;47.33;100336.84;146599;638;46917;-78
2022/04/08 04:55:59;;;;;;;;;6.00;5.00;;;;;16.37;45.42;100344.47;146598;576;47008;-80
2022/04/08 04:58:51;;;;;;;;;5.00;4.75;;;;;16.99;44.12;100345.75;146597;625;46011;-78
2022/04/08 05:01:43;;;;;;;;;7.50;5.75;;;;;17.41;42.88;100352.63;146597;627;47020;-77
2022/04/08 05:04:35;;;;;;;;;4.00;4.00;;;;;17.63;42.10;100353.88;146599;611;46016;-79
2022/04/08 05:07:28;;;;;;;;;6.75;6.00;;;;;17.76;41.50;100363.72;146599;589;46020;-80
2022/04/08 05:10:21;;;;;;;;;5.25;5.25;;;;;17.81;40.66;100372.56;146596;570;47012;-80
2022/04/08 05:13:13;;;;;;;;;4.00;4.00;;;;;17.85;40.78;100361.28;146600;694;46020;-78
2022/04/08 05:16:05;;;;;;;;;6.25;4.75;;;;;17.84;40.55;100356.88;146599;621;46016;-79
2022/04/08 05:18:57;;;;;;;;;5.25;5.25;;;;;17.85;41.47;100366.53;146598;622;47020;-80
2022/04/08 05:21:52;;;;;;;;;5.75;5.75;;;;;17.83;41.18;100360.38;146599;592;46017;-78
2022/04/08 05:24:44;;;;;;;;;5.00;4.50;;;;;17.76;41.64;100359.34;146603;642;45050;-76
2022/04/08 05:27:43;;;;;;;;;5.75;5.75;;;;;17.71;42.29;100355.75;146596;569;47010;-77
2022/04/08 05:30:35;;;;;;;;;5.00;5.00;;;;;17.76;41.72;100358.47;146597;583;46008;-79
2022/04/08 05:33:28;;;;;;;;;5.00;5.00;;;;;17.90;41.61;100371.84;146600;595;46010;-80
2022/04/08 05:36:19;;;;;;;;;6.25;6.25;;;;;18.05;41.58;100368.56;146602;564;46020;-81
2022/04/08 05:39:12;;;;;;;;;5.75;4.00;;;;;18.18;41.64;100367.88;146598;648;46016;-89
2022/04/08 05:42:05;;;;;;;;;5.33;5.33;;;;;18.30;41.51;100375.06;146603;633;46020;-79
2022/04/08 05:44:57;;;;;;;;;6.00;6.00;;;;;18.40;41.20;100366.44;146596;625;47010;-78
2022/04/08 05:47:50;;;;;;;;;8.00;6.75;;;;;18.46;41.36;100366.53;146601;564;46020;-76
2022/04/08 05:50:42;;;;;;;;;6.33;6.33;;;;;18.58;40.60;100369.31;146601;621;46010;-76
2022/04/08 05:53:34;;;;;;;;;6.50;6.00;;;;;18.68;40.65;100378.19;146602;686;46020;-73
2022/04/08 05:56:27;;;;;;;;;7.25;6.00;;;;;18.79;40.48;100375.75;146598;582;46016;-75
2022/04/08 05:59:19;;;;;;;;;6.00;5.25;;;;;18.86;40.26;100373.19;146601;604;46021;-74
2022/04/08 06:02:11;;;;;;;;;6.00;4.50;;;;;18.99;40.33;100384.72;146598;718;46016;-74
2022/04/08 06:05:04;;;;;;;;;5.67;5.67;;;;;19.09;40.14;100390.97;146601;578;46020;-74
2022/04/08 06:07:57;;;;;;;;;7.00;7.00;;;;;19.17;40.11;100391.06;146595;701;47012;-73
2022/04/08 06:10:49;;;;;;;;;7.25;5.50;;;;;19.19;39.38;100387.59;146600;654;46012;-71
2022/04/08 06:13:42;;;;;;;;;6.75;6.75;;;;;19.21;39.99;100383.22;146598;598;47010;-82
2022/04/08 06:16:33;;;;;;;;;6.50;5.00;;;;;19.29;41.07;100392.09;146603;578;46020;-79
2022/04/08 06:19:25;;;;;;;;;7.00;7.00;;;;;19.43;40.14;100380.81;146599;613;46016;-83
2022/04/08 06:22:17;;;;;;;;;5.00;5.00;;;;;19.45;39.59;100390.50;146602;650;47008;-78
2022/04/08 06:25:13;;;;;;;;;6.00;5.00;;;;;19.46;38.66;100397.50;146600;591;46917;-81
2022/04/08 06:28:07;;;;;;;;;7.75;6.75;;;;;19.51;38.84;100408.09;146599;653;47008;-83
2022/04/08 06:30:59;;;;;;;;;8.75;6.50;;;;;19.50;40.10;100395.78;146596;649;47010;-84
2022/04/08 06:33:51;;;;;;;;;5.33;5.33;;;;;19.51;39.03;100400.19;146604;565;45919;-80
2022/04/08 06:36:44;;;;;;;;;6.33;5.67;;;;;19.58;39.20;100404.62;146599;695;47010;-76
2022/04/08 06:39:36;;;;;;;;;7.00;5.50;;;;;19.72;40.78;100415.31;146603;575;46020;-82
2022/04/08 06:42:28;;;;;;;;;6.00;6.00;;;;;19.87;39.15;100415.44;146597;639;46917;-77
2022/04/08 06:45:19;;;;;;;;;8.00;7.00;;;;;19.96;39.09;100406.75;146605;581;46020;-81
2022/04/08 06:48:13;;;;;;;;;9.00;7.00;;;;;20.00;38.45;100424.31;146598;667;46010;-82
2022/04/08 06:51:05;;;;;;;;;6.00;6.00;;;;;19.99;39.04;100419.94;146603;598;46021;-79
2022/04/08 06:53:57;;;;;;;;;10.33;7.67;;;;;19.94;38.18;100425.16;146599;641;46016;-77
2022/04/08 06:56:49;;;;;;;;;7.50;7.00;;;;;19.96;38.68;100418.16;146600;575;46020;-78
2022/04/08 06:59:43;;;;;;;;;5.75;5.00;;;;;19.98;39.65;100426.06;146598;571;46017;-77
2022/04/08 07:02:35;;;;;;;;;7.75;5.50;;;;;20.05;39.13;100441.03;146600;571;46020;-77
2022/04/08 07:05:28;;;;;;;;;7.67;6.33;;;;;20.18;39.68;100431.47;146596;566;47010;-79
2022/04/08 07:08:21;;;;;;;;;5.25;5.25;;;;;20.38;39.08;100434.28;146600;611;46020;-82
2022/04/08 07:11:13;;;;;;;;;6.00;5.25;;;;;20.60;37.86;100430.91;146596;680;47010;-82
2022/04/08 07:14:05;;;;;;;;;7.00;6.00;;;;;20.81;38.33;100442.44;146602;564;46008;-83
2022/04/08 07:16:57;;;;;;;;;6.25;6.25;;;;;20.97;37.26;100444.28;146596;653;46021;-77
2022/04/08 07:19:51;;;;;;;;;6.25;6.25;;;;;21.08;38.63;100442.56;146624;636;45020;-79
2022/04/08 07:22:43;;;;;;;;;7.00;6.50;;;;;21.14;38.77;100439.94;146623;667;45010;-71
2022/04/08 07:25:35;;;;;;;;;10.75;8.00;;;;;21.08;38.81;100437.28;146624;574;45008;-75
2022/04/08 07:28:28;;;;;;;;;5.67;5.33;;;;;21.04;38.29;100447.81;146620;569;46010;-73
2022/04/08 07:31:19;;;;;;;;;7.00;6.00;;;;;21.06;37.97;100443.41;146627;626;45919;-73
2022/04/08 07:34:12;;;;;;;;;9.00;7.75;;;;;21.17;38.25;100442.59;146618;564;48010;-73
2022/04/08 07:37:04;;;;;;;;;11.50;8.50;;;;;21.34;38.67;100447.03;146627;691;46008;-74
2022/04/08 07:39:56;;;;;;;;;7.00;6.25;;;;;21.54;38.10;100448.00;146625;578;45010;-74
2022/04/08 07:42:48;;;;;;;;;6.00;5.00;;;;;21.73;37.10;100440.13;146626;573;45021;-74
2022/04/08 07:45:41;;;;;;;;;7.50;7.50;;;;;21.78;36.30;100446.28;146624;625;45010;-75
2022/04/08 07:48:33;;;;;;;;;7.33;7.00;;;;;21.76;37.10;100451.56;146621;603;46919;-74
2022/04/08 07:51:25;;;;;;;;;8.75;8.75;;;;;21.82;37.08;100446.28;146623;637;46010;-74
2022/04/08 07:54:17;;;;;;;;;7.00;6.00;;;;;21.96;37.37;100454.19;146626;642;46008;-74
2022/04/08 07:57:09;;;;;;;;;0.00;0.00;;;;;22.07;36.74;100452.44;146625;569;45012;-73
2022/04/08 08:00:01;;;;;;;;;8.25;7.00;;;;;22.22;36.78;100456.00;146625;640;46008;-74
2022/04/08 08:02:54;;;;;;;;;6.33;5.33;;;;;22.31;37.33;100458.66;146624;565;45016;-73
2022/04/08 08:05:45;;;;;;;;;5.50;5.50;;;;;22.43;36.64;100461.28;146626;652;46008;-73
2022/04/08 08:08:38;;;;;;;;;8.75;7.25;;;;;22.59;36.70;100459.50;146620;594;46010;-74
2022/04/08 08:11:30;;;;;;;;;7.00;6.00;;;;;22.74;36.33;100462.09;146629;575;46008;-72
2022/04/08 08:14:22;;;;;;;;;8.00;7.00;;;;;22.92;36.65;100471.72;146622;673;45010;-74
2022/04/08 08:17:14;;;;;;;;;6.33;6.00;;;;;23.10;36.77;100459.34;146627;592;45020;-73
2022/04/08 08:20:07;;;;;;;;;9.00;7.33;;;;;23.25;35.88;100461.94;146598;609;47012;-72
2022/04/08 08:22:59;;;;;;;;;6.00;5.33;;;;;23.28;34.40;100467.19;146597;642;47008;-72
2022/04/08 08:25:51;;;;;;;;;3.67;3.00;;;;;23.20;35.63;100479.56;146599;570;46917;-80
2022/04/08 08:28:43;;;;;;;;;7.00;5.67;;;;;23.08;35.10;100471.69;146601;590;46008;-76
2022/04/08 08:31:35;;;;;;;;;8.00;6.00;;;;;23.01;36.21;100479.66;146599;609;46016;-74
2022/04/08 08:34:27;;;;;;;;;8.33;8.33;;;;;23.01;36.69;100484.94;146604;645;46021;-73
2022/04/08 08:37:19;;;;;;;;;7.00;6.33;;;;;23.00;35.14;100484.94;146597;657;47010;-74
2022/04/08 08:40:12;;;;;;;;;4.50;4.50;;;;;22.98;35.75;100482.28;146605;640;46020;-73
2022/04/08 08:43:05;;;;;;;;;7.33;5.33;;;;;23.02;36.76;100484.06;146598;569;46024;-73
2022/04/08 08:46:01;;;;;;;;;5.67;5.33;;;;;23.20;36.90;100487.50;146604;683;46020;-73
2022/04/08 08:48:54;;;;;;;;;5.33;5.33;;;;;23.42;36.36;100491.81;146597;589;47010;-73
2022/04/08 08:51:52;;;;;;;;;6.33;3.67;;;;;23.58;35.76;100497.03;146603;634;46008;-73
2022/04/08 08:54:45;;;;;;;;;6.33;6.00;;;;;23.59;35.17;100490.84;146599;646;46010;-74
2022/04/08 08:57:37;;;;;;;;;7.33;6.33;;;;;23.52;34.95;100480.31;146604;565;46008;-73
2022/04/08 09:00:29;;;;;;;;;6.33;6.33;;;;;23.36;34.13;100475.09;146599;577;46917;-73
2022/04/08 09:03:21;;;;;;;;;9.25;7.25;;;;;23.27;35.76;100486.59;146601;566;46028;-74
2022/04/08 09:06:14;;;;;;;;;6.00;6.00;;;;;23.31;36.48;100482.19;146598;597;46012;-74
2022/04/08 09:09:06;;;;;;;;;6.00;5.00;;;;;23.46;36.00;100480.34;146602;572;46020;-73
2022/04/08 09:11:58;;;;;;;;;7.00;5.67;;;;;23.60;36.03;100477.59;146600;564;46017;-74
2022/04/08 09:15:02;;;;;;;;;3.33;3.33;;;;;23.62;37.23;100472.31;146600;569;47008;-74
2022/04/08 09:17:54;;;;;;;;;6.00;6.00;;;;;23.55;36.33;100481.16;146594;574;47024;-74
2022/04/08 09:20:52;;;;;;;;;5.67;5.67;;;;;23.64;36.76;100481.97;146601;585;46020;-74
2022/04/08 09:23:44;;;;;;;;;6.33;6.33;;;;;23.85;36.24;100488.94;146598;602;47012;-74
2022/04/08 09:26:40;;;;;;;;;8.00;6.00;;;;;23.87;36.01;100444.81;146603;602;46008;-73
2022/04/08 09:29:32;;;;;;;;;7.50;6.50;;;;;24.31;36.35;100470.03;146596;582;46034;-78
2022/04/08 09:32:25;;;;;;;;;5.67;5.67;;;;;24.32;34.79;100481.50;146604;623;46020;-74
2022/04/08 09:35:27;;;;;;;;;6.67;6.00;;;;;24.14;36.48;100474.59;146598;572;46917;-74
2022/04/08 09:38:34;;;;;;;;;8.33;5.67;;;;;23.96;36.92;100478.28;146603;632;46020;-73
2022/04/08 09:41:46;;;;;;;;;5.00;4.33;;;;;23.79;36.18;100475.75;146598;683;46016;-75
2022/04/08 09:44:39;;;;;;;;;9.67;7.67;;;;;23.71;36.32;100465.22;146602;663;46020;-73
2022/04/08 09:47:33;;;;;;;;;6.50;5.50;;;;;23.77;35.63;100460.75;146599;607;46016;-74
2022/04/08 09:50:51;;;;;;;;;7.67;6.33;;;;;22.17;37.46;100186.66;146601;563;46021;-75
2022/04/08 09:54:18;;;;;;;;;7.00;6.33;;;;;23.79;36.99;100461.63;146600;576;46017;-73
2022/04/08 09:57:19;;;;;;;;;7.50;6.00;;;;;23.70;36.98;100455.50;146598;571;47008;-73
2022/04/08 10:00:22;;;;;;;;;6.00;6.00;;;;;23.74;36.21;100464.31;146598;615;47010;-73
2022/04/08 10:03:15;;;;;;;;;4.67;4.67;;;;;23.87;35.69;100462.47;146600;624;47008;-73
2022/04/08 10:06:09;;;;;;;;;6.00;6.00;;;;;24.13;35.68;100473.72;146600;591;46016;-73
2022/04/08 10:09:04;;;;;;;;;6.50;4.50;;;;;24.47;35.39;100470.81;146601;565;47008;-72
2022/04/08 10:12:36;;;;;;;;;5.00;5.00;;;;;24.81;37.04;100459.84;146598;571;47012;-73
2022/04/08 10:15:49;;;;;;;;;8.75;7.00;;;;;25.15;36.35;100463.00;146600;670;47008;-73
2022/04/08 10:18:43;;;;;;;;;13.00;12.00;;;;;25.43;34.07;100460.00;146596;618;47010;-74
2022/04/08 10:21:45;;;;;;;;;8.25;7.75;;;;;25.59;34.99;100453.53;146602;591;46020;-74
2022/04/08 10:24:40;;;;;;;;;9.00;8.00;;;;;25.70;34.41;100456.94;146597;690;46010;-73
2022/04/08 10:27:38;;;;;;;;;6.00;5.00;;;;;25.79;33.95;100453.22;146602;570;46008;-74
2022/04/08 10:30:30;;;;;;;;;4.67;4.67;;;;;25.90;32.64;100453.13;146598;621;47010;-74
2022/04/08 10:33:31;;;;;;;;;8.00;6.33;;;;;25.99;34.41;100448.53;146602;607;46021;-73
2022/04/08 10:36:47;;;;;;;;;6.50;5.50;;;;;26.13;34.81;100439.44;146595;569;47010;-74
2022/04/08 10:39:42;;;;;;;;;5.00;5.00;;;;;26.29;33.64;100432.94;146601;573;46008;-74
2022/04/08 10:42:34;;;;;;;;;8.00;7.00;;;;;26.45;32.28;100454.84;146598;597;46017;-74
2022/04/08 10:45:26;;;;;;;;;6.00;5.00;;;;;26.56;32.23;100441.34;146600;591;47008;-73
2022/04/08 10:48:19;;;;;;;;;5.33;5.33;;;;;25.95;32.01;100318.41;146599;630;46010;-74
2022/04/08 10:51:16;;;;;;;;;5.00;4.25;;;;;26.79;33.92;100439.12;146601;662;46008;-74
2022/04/08 10:54:08;;;;;;;;;4.33;4.33;;;;;26.85;32.64;100438.13;146597;559;47011;-76
2022/04/08 10:57:03;;;;;;;;;0.00;0.00;;;;;26.97;33.21;100443.19;146604;615;46008;-75
2022/04/08 11:00:16;;;;;;;;;3.00;3.00;;;;;27.07;33.43;100439.44;146598;625;46016;-73
2022/04/08 11:03:10;;;;;;;;;5.67;5.00;;;;;27.16;31.31;100433.06;146600;615;46012;-75
2022/04/08 11:06:29;;;;;;;;;;;;;;;;;;;;;
2022/04/08 11:10:23;;;;;;;;;4.67;4.00;;;;;27.31;33.96;100426.53;146603;629;46008;-75
2022/04/08 11:13:18;;;;;;;;;5.33;4.67;;;;;27.37;30.93;100421.94;146598;647;47010;-75
2022/04/08 11:16:10;;;;;;;;;6.67;5.00;;;;;27.43;31.58;100417.41;146605;565;46008;-74
2022/04/08 11:19:03;;;;;;;;;5.33;4.33;;;;;26.75;30.25;100283.16;146604;593;46010;-74
2022/04/08 11:21:55;;;;;;;;;3.67;3.67;;;;;27.52;30.60;100407.41;146601;564;46020;-74
2022/04/08 11:24:47;;;;;;;;;6.00;6.00;;;;;27.59;30.52;100408.12;146599;607;46918;-75
2022/04/08 11:27:40;;;;;;;;;5.33;3.00;;;;;27.69;30.62;100400.78;146605;620;46008;-74
2022/04/08 11:30:34;;;;;;;;;5.00;4.00;;;;;27.81;30.33;100395.19;146599;623;46917;-75
2022/04/08 11:33:26;;;;;;;;;4.75;4.75;;;;;27.84;29.24;100387.13;146604;607;45021;-75
2022/04/08 11:36:26;;;;;;;;;3.00;3.00;;;;;27.76;31.41;100400.63;146602;618;45917;-75
2022/04/08 11:39:27;;;;;;;;;5.00;5.00;;;;;27.73;31.46;100386.50;146603;592;46021;-75
2022/04/08 11:42:22;;;;;;;;;5.00;4.67;;;;;27.76;30.55;100389.09;146601;583;46016;-75
2022/04/08 11:45:15;;;;;;;;;3.00;3.00;;;;;27.80;29.47;100385.47;146604;625;46008;-74
2022/04/08 11:48:10;;;;;;;;;6.00;3.33;;;;;27.79;30.91;100384.59;146600;578;46016;-74
2022/04/08 11:51:08;;;;;;;;;5.67;5.00;;;;;27.85;31.60;100384.44;146603;593;46020;-74
2022/04/08 11:54:05;;;;;;;;;4.00;4.00;;;;;27.89;30.36;100371.91;146597;596;46012;-75
2022/04/08 11:56:58;;;;;;;;;4.00;4.00;;;;;27.98;30.89;100378.78;146604;580;47012;-75
2022/04/08 11:59:54;;;;;;;;;5.00;5.00;;;;;28.04;30.94;100378.63;146599;643;46016;-74
2022/04/08 12:02:45;;;;;;;;;5.33;4.00;;;;;27.99;29.11;100384.06;146602;577;46021;-73
2022/04/08 12:05:49;;;;;;;;;7.00;6.33;;;;;27.84;30.55;100373.81;146598;594;46012;-73
2022/04/08 12:08:42;;;;;;;;;4.67;4.67;;;;;27.76;28.25;100370.44;146603;612;46009;-73
2022/04/08 12:11:36;;;;;;;;;5.67;4.33;;;;;27.70;28.65;100367.94;146596;696;47012;-73
2022/04/08 12:14:28;;;;;;;;;5.33;4.33;;;;;27.75;30.41;100364.22;146606;577;45020;-73
2022/04/08 12:17:20;;;;;;;;;3.00;3.00;;;;;27.86;30.90;100353.34;146598;603;46017;-73
2022/04/08 12:20:25;;;;;;;;;4.00;4.00;;;;;28.04;32.04;100344.84;146602;581;46020;-73
2022/04/08 12:23:18;;;;;;;;;5.00;5.00;;;;;28.20;30.04;100334.66;146599;570;46016;-74
2022/04/08 12:26:11;;;;;;;;;3.00;2.00;;;;;28.33;29.11;100340.50;146602;566;47020;-73
2022/04/08 12:29:12;;;;;;;;;4.67;4.00;;;;;28.42;31.08;100339.41;146599;578;46012;-73
2022/04/08 12:32:04;;;;;;;;;3.00;3.00;;;;;28.47;29.84;100343.66;146606;605;46021;-79
2022/04/08 12:34:56;;;;;;;;;4.00;3.00;;;;;28.54;28.54;100331.06;146599;566;46016;-75
2022/04/08 12:37:49;;;;;;;;;1.33;1.33;;;;;28.38;24.90;100321.69;146601;584;46029;-73
2022/04/08 12:40:43;;;;;;;;;2.67;2.67;;;;;28.11;26.62;100316.25;146599;597;46016;-74
2022/04/08 12:43:35;;;;;;;;;3.67;3.67;;;;;27.96;28.42;100329.97;146605;588;45020;-75
2022/04/08 12:46:28;;;;;;;;;3.00;3.00;;;;;27.99;29.06;100316.56;146599;599;46016;-74
2022/04/08 12:49:20;;;;;;;;;4.67;4.00;;;;;28.09;28.38;100318.94;146601;612;46025;-75
2022/04/08 12:52:12;;;;;;;;;2.00;2.00;;;;;28.15;27.34;100312.56;146598;613;46016;-75
2022/04/08 12:55:05;;;;;;;;;1.67;1.00;;;;;28.13;27.19;100309.09;146604;655;46008;-74
2022/04/08 12:57:57;;;;;;;;;2.33;1.00;;;;;28.18;27.62;100309.81;146597;610;47010;-76
2022/04/08 13:00:50;;;;;;;;;3.00;2.00;;;;;28.26;27.36;100309.62;146601;564;46021;-74
2022/04/08 13:03:42;;;;;;;;;2.00;2.00;;;;;28.31;28.84;100303.22;146599;654;47010;-74
2022/04/08 13:06:35;;;;;;;;;1.33;1.00;;;;;28.42;28.93;100302.09;146604;583;46008;-74
2022/04/08 13:09:30;;;;;;;;;2.67;2.67;;;;;28.49;30.00;100300.97;146599;594;46010;-75
2022/04/08 13:12:22;;;;;;;;;2.33;1.00;;;;;28.55;28.46;100293.66;146603;602;46020;-75
2022/04/08 13:15:15;;;;;;;;;2.00;2.00;;;;;28.58;28.68;100282.03;146597;595;46030;-75
2022/04/08 13:18:07;;;;;;;;;4.00;3.00;;;;;28.61;28.75;100276.59;146599;586;47008;-76
2022/04/08 13:20:59;;;;;;;;;3.67;2.67;;;;;28.62;27.91;100270.34;146599;616;46917;-74
2022/04/08 13:23:53;;;;;;;;;3.33;2.33;;;;;27.89;28.98;100152.56;146600;634;47008;-75
2022/04/08 13:26:45;;;;;;;;;2.00;2.00;;;;;28.65;28.94;100272.91;146599;649;46010;-75
2022/04/08 13:29:37;;;;;;;;;3.00;2.67;;;;;28.65;28.16;100274.72;146602;587;46021;-74
2022/04/08 13:32:35;;;;;;;;;2.00;1.00;;;;;28.60;27.87;100276.62;146599;565;46010;-74